createdAt,value
2018-02-21T00:01:05.110Z,-5.70
2018-02-21T00:03:37.834Z,-5.80
2018-02-21T00:06:11.862Z,-5.70
2018-02-21T00:08:47.406Z,-5.70
2018-02-21T00:11:21.688Z,-5.70
2018-02-21T00:13:57.806Z,-5.70
2018-02-21T00:16:30.465Z,-5.80
2018-02-21T00:19:06.126Z,-6.00
2018-02-21T00:21:37.818Z,-6.00
2018-02-21T00:24:09.893Z,-5.90
2018-02-21T00:26:40.618Z,-6.00
2018-02-21T00:29:09.702Z,-6.20
2018-02-21T00:31:37.946Z,-6.30
2018-02-21T00:34:05.990Z,-6.10
2018-02-21T00:36:37.933Z,-6.10
2018-02-21T00:39:12.835Z,-6.00
2018-02-21T00:41:45.241Z,-6.00
2018-02-21T00:44:20.286Z,-6.10
2018-02-21T00:46:54.114Z,-6.30
2018-02-21T00:49:24.966Z,-6.30
2018-02-21T00:52:02.194Z,-6.40
2018-02-21T00:54:33.330Z,-6.60
2018-02-21T00:57:02.377Z,-6.70
2018-02-21T00:59:33.994Z,-6.80
2018-02-21T01:02:06.937Z,-6.90
2018-02-21T01:04:42.270Z,-6.80
2018-02-21T01:07:18.282Z,-6.90
2018-02-21T01:09:50.022Z,-6.90
2018-02-21T01:12:29.813Z,-7.00
2018-02-21T01:15:04.757Z,-7.00
2018-02-21T01:17:35.877Z,-7.00
2018-02-21T01:20:14.205Z,-7.00
2018-02-21T01:22:42.285Z,-7.00
2018-02-21T01:25:10.345Z,-7.00
2018-02-21T01:27:45.281Z,-6.80
2018-02-21T01:30:15.377Z,-6.60
2018-02-21T01:32:49.549Z,-6.70
2018-02-21T01:35:18.380Z,-6.40
2018-02-21T01:37:46.429Z,-6.40
2018-02-21T01:40:16.469Z,-6.50
2018-02-21T01:42:45.497Z,-6.50
2018-02-21T01:45:13.556Z,-6.60
2018-02-21T01:47:42.600Z,-6.70
2018-02-21T01:50:11.597Z,-6.70
2018-02-21T01:52:43.117Z,-6.80
2018-02-21T01:55:11.257Z,-6.80
2018-02-21T01:57:39.324Z,-6.90
2018-02-21T02:00:07.384Z,-6.90
2018-02-21T02:02:37.351Z,-7.00
2018-02-21T02:05:07.359Z,-7.10
2018-02-21T02:07:36.296Z,-7.30
2018-02-21T02:10:11.673Z,-7.30
2018-02-21T02:12:42.753Z,-7.40
2018-02-21T02:15:12.489Z,-7.50
2018-02-21T02:17:42.445Z,-7.50
2018-02-21T02:20:16.716Z,-7.50
2018-02-21T02:22:58.104Z,-7.40
2018-02-21T02:25:26.197Z,-7.30
2018-02-21T02:27:59.940Z,-7.40
2018-02-21T02:30:30.180Z,-7.40
2018-02-21T02:32:58.984Z,-7.30
2018-02-21T02:35:28.079Z,-7.30
2018-02-21T02:37:56.498Z,-7.10
2018-02-21T02:40:26.438Z,-7.00
2018-02-21T02:42:55.457Z,-6.90
2018-02-21T02:45:24.448Z,-6.80
2018-02-21T02:47:52.538Z,-6.70
2018-02-21T02:50:20.597Z,-6.60
2018-02-21T02:52:48.788Z,-6.60
2018-02-21T02:55:20.617Z,-6.50
2018-02-21T02:57:49.601Z,-6.40
2018-02-21T03:00:19.425Z,-6.20
2018-02-21T03:02:48.442Z,-6.20
2018-02-21T03:05:24.965Z,-6.20
2018-02-21T03:07:54.896Z,-6.00
2018-02-21T03:10:25.589Z,-5.70
2018-02-21T03:12:54.636Z,-5.80
2018-02-21T03:15:23.725Z,-5.60
2018-02-21T03:17:52.690Z,-5.30
2018-02-21T03:20:23.429Z,-4.80
2018-02-21T03:22:52.444Z,-4.90
2018-02-21T03:25:20.736Z,-4.70
2018-02-21T03:27:50.781Z,-4.60
2018-02-21T03:30:19.849Z,-4.40
2018-02-21T03:32:49.817Z,-4.30
2018-02-21T03:35:19.636Z,-4.10
2018-02-21T03:37:56.388Z,-4.10
2018-02-21T03:40:24.500Z,-4.10
2018-02-21T03:42:57.276Z,-3.90
2018-02-21T03:45:26.252Z,-3.90
2018-02-21T03:47:59.568Z,-3.80
2018-02-21T03:50:34.024Z,-3.80
2018-02-21T03:53:04.075Z,-3.70
2018-02-21T03:55:34.120Z,-3.70
2018-02-21T03:58:03.209Z,-3.70
2018-02-21T04:00:33.207Z,-3.70
2018-02-21T04:03:08.496Z,-3.80
2018-02-21T04:05:41.452Z,-3.80
2018-02-21T04:08:10.480Z,-3.90
2018-02-21T04:10:38.560Z,-3.90
2018-02-21T04:13:10.340Z,-4.00
2018-02-21T04:15:48.960Z,-4.10
2018-02-21T04:18:21.108Z,-4.00
2018-02-21T04:20:55.320Z,-4.10
2018-02-21T04:23:27.208Z,-4.10
2018-02-21T04:25:55.252Z,-4.20
2018-02-21T04:28:28.724Z,-4.20
2018-02-21T04:31:02.480Z,-4.20
2018-02-21T04:33:38.832Z,-4.10
2018-02-21T04:36:08.876Z,-4.20
2018-02-21T04:38:41.464Z,-4.10
2018-02-21T04:41:13.144Z,-4.10
2018-02-21T04:43:54.191Z,-4.00
2018-02-21T04:46:22.276Z,-4.10
2018-02-21T04:48:52.230Z,-4.10
2018-02-21T04:51:23.620Z,-4.10
2018-02-21T04:53:52.620Z,-4.10
2018-02-21T04:59:33.068Z,-4.10
2018-02-21T05:02:01.116Z,-4.20
2018-02-21T05:04:31.173Z,-4.30
2018-02-21T05:06:59.448Z,-4.30
2018-02-21T05:09:33.936Z,-4.40
2018-02-21T05:12:05.028Z,-4.40
2018-02-21T05:14:33.968Z,-4.40
2018-02-21T05:17:07.674Z,-4.40
2018-02-21T05:19:36.608Z,-4.40
2018-02-21T05:22:04.661Z,-4.40
2018-02-21T05:24:38.156Z,-4.60
2018-02-21T05:27:10.240Z,-4.60
2018-02-21T05:29:40.232Z,-4.60
2018-02-21T05:32:16.584Z,-4.70
2018-02-21T05:34:46.628Z,-4.70
2018-02-21T05:37:16.659Z,-4.70
2018-02-21T05:39:56.950Z,-4.70
2018-02-21T05:42:24.992Z,-4.80
2018-02-21T05:44:54.044Z,-4.80
2018-02-21T05:47:22.084Z,-4.90
2018-02-21T05:49:50.120Z,-4.90
2018-02-21T05:52:20.096Z,-4.90
2018-02-21T05:54:49.083Z,-4.90
2018-02-21T05:57:22.847Z,-4.90
2018-02-21T05:59:53.727Z,-5.00
2018-02-21T06:02:28.444Z,-5.00
2018-02-21T06:04:59.532Z,-5.00
2018-02-21T06:07:27.756Z,-5.10
2018-02-21T06:10:02.048Z,-5.30
2018-02-21T06:12:31.171Z,-5.40
2018-02-21T06:15:01.208Z,-5.50
2018-02-21T06:17:34.556Z,-5.50
2018-02-21T06:20:04.579Z,-5.60
2018-02-21T06:22:32.643Z,-5.50
2018-02-21T06:25:00.764Z,-5.70
2018-02-21T06:27:29.792Z,-5.80
2018-02-21T06:29:59.828Z,-5.80
2018-02-21T06:32:36.027Z,-5.90
2018-02-21T06:35:11.711Z,-5.90
2018-02-21T06:37:44.363Z,-6.00
2018-02-21T06:40:13.204Z,-6.00
2018-02-21T06:42:41.331Z,-6.00
2018-02-21T06:45:12.347Z,-6.00
2018-02-21T06:47:41.376Z,-6.00
2018-02-21T06:50:11.412Z,-6.10
2018-02-21T06:52:41.443Z,-6.20
2018-02-21T06:55:10.512Z,-6.20
2018-02-21T06:57:44.251Z,-6.20
2018-02-21T07:00:12.340Z,-6.20
2018-02-21T07:02:46.371Z,-6.10
2018-02-21T07:05:15.388Z,-6.10
2018-02-21T07:07:44.406Z,-5.90
2018-02-21T07:10:24.448Z,-5.80
2018-02-21T07:12:52.528Z,-5.70
2018-02-21T07:15:21.709Z,-5.60
2018-02-21T07:17:53.156Z,-5.40
2018-02-21T07:20:25.811Z,-5.30
2018-02-21T07:22:53.895Z,-5.30
2018-02-21T07:25:25.633Z,-5.20
2018-02-21T07:27:53.695Z,-5.00
2018-02-21T07:30:22.539Z,-4.60
2018-02-21T07:32:56.671Z,-4.70
2018-02-21T07:35:24.711Z,-4.60
2018-02-21T07:37:52.747Z,-4.40
2018-02-21T07:40:21.567Z,-4.20
2018-02-21T07:42:49.638Z,-4.20
2018-02-21T07:45:21.615Z,-4.10
2018-02-21T07:47:55.243Z,-4.00
2018-02-21T07:50:24.519Z,-3.90
2018-02-21T07:52:52.575Z,-3.80
2018-02-21T07:55:24.559Z,-3.70
2018-02-21T07:57:59.157Z,-3.70
2018-02-21T08:00:30.132Z,-3.60
2018-02-21T08:02:58.186Z,-3.60
2018-02-21T08:05:27.179Z,-3.50
2018-02-21T08:07:57.123Z,-3.40
2018-02-21T08:10:25.183Z,-3.40
2018-02-21T08:12:55.223Z,-3.20
2018-02-21T08:15:24.108Z,-3.10
2018-02-21T08:17:52.112Z,-3.10
2018-02-21T08:20:24.179Z,-3.00
2018-02-21T08:22:54.174Z,-3.00
2018-02-21T08:25:24.123Z,-2.90
2018-02-21T08:28:00.294Z,-2.80
2018-02-21T08:30:35.128Z,-2.80
2018-02-21T08:33:14.923Z,-2.70
2018-02-21T08:35:43.884Z,-2.60
2018-02-21T08:38:13.965Z,-2.50
2018-02-21T08:40:43.051Z,-2.40
2018-02-21T08:43:31.405Z,-2.30
2018-02-21T08:46:03.218Z,-2.20
2018-02-21T08:48:31.191Z,-2.10
2018-02-21T08:51:00.103Z,-2.00
2018-02-21T08:53:35.155Z,-1.90
2018-02-21T08:56:20.526Z,-1.80
2018-02-21T08:58:52.979Z,-1.70
2018-02-21T09:01:21.939Z,-1.60
2018-02-21T09:03:54.155Z,-1.50
2018-02-21T09:06:25.867Z,-1.40
2018-02-21T09:09:08.019Z,-1.20
2018-02-21T09:11:45.938Z,-1.20
2018-02-21T09:14:22.495Z,-1.00
2018-02-21T09:16:50.542Z,-0.90
2018-02-21T09:19:19.587Z,-0.80
2018-02-21T09:21:47.701Z,-0.70
2018-02-21T09:24:17.159Z,-0.50
2018-02-21T09:27:03.430Z,-0.50
2018-02-21T09:29:34.510Z,-0.30
2018-02-21T09:32:02.577Z,-0.30
2018-02-21T09:34:45.639Z,-0.30
2018-02-21T09:37:15.627Z,-0.10
2018-02-21T09:39:46.390Z,1.20
2018-02-21T09:42:17.556Z,1.20
2018-02-21T09:44:45.583Z,2.30
2018-02-21T09:47:19.247Z,5.10
2018-02-21T09:49:47.295Z,5.00
2018-02-21T09:52:22.199Z,6.00
2018-02-21T09:54:51.367Z,5.90
2018-02-21T09:57:21.403Z,6.00
2018-02-21T09:59:54.423Z,6.00
2018-02-21T10:02:23.114Z,6.00
2018-02-21T10:04:51.218Z,6.10
2018-02-21T10:07:20.930Z,6.50
2018-02-21T10:09:52.447Z,7.60
2018-02-21T10:12:21.286Z,7.50
2018-02-21T10:14:51.259Z,8.60
2018-02-21T10:17:23.595Z,8.10
2018-02-21T10:19:55.443Z,7.90
2018-02-21T10:22:23.463Z,7.50
2018-02-21T10:24:52.659Z,6.70
2018-02-21T10:27:23.451Z,8.20
2018-02-21T10:29:59.811Z,8.20
2018-02-21T10:32:33.708Z,6.80
2018-02-21T10:35:05.739Z,6.00
2018-02-21T10:37:41.182Z,6.10
2018-02-21T10:40:10.114Z,6.10
2018-02-21T10:42:40.646Z,6.00
2018-02-21T10:45:13.211Z,6.70
2018-02-21T10:47:43.206Z,7.30
2018-02-21T10:50:13.987Z,9.00
2018-02-21T10:52:43.155Z,8.90
2018-02-21T10:55:15.642Z,9.30
2018-02-21T10:57:49.455Z,9.30
2018-02-21T11:00:27.990Z,9.80
2018-02-21T11:03:06.146Z,9.30
2018-02-21T11:05:36.091Z,9.10
2018-02-21T11:08:05.062Z,8.90
2018-02-21T11:10:39.634Z,9.00
2018-02-21T11:13:07.686Z,9.00
2018-02-21T11:15:42.746Z,9.20
2018-02-21T11:18:10.778Z,9.60
2018-02-21T11:20:38.814Z,9.90
2018-02-21T11:23:12.360Z,10.20
2018-02-21T11:25:40.391Z,10.00
2018-02-21T11:28:14.091Z,10.20
2018-02-21T11:30:52.799Z,10.10
2018-02-21T11:33:22.739Z,10.10
2018-02-21T11:35:57.142Z,9.20
2018-02-21T11:38:29.646Z,9.10
2018-02-21T11:41:01.713Z,9.10
2018-02-21T11:43:35.726Z,9.30
2018-02-21T11:46:07.699Z,9.30
2018-02-21T11:48:38.418Z,10.10
2018-02-21T11:51:07.214Z,10.50
2018-02-21T11:53:43.450Z,10.50
2018-02-21T11:56:14.570Z,11.20
2018-02-21T11:58:48.165Z,12.10
2018-02-21T12:01:19.358Z,12.10
2018-02-21T12:03:51.170Z,9.80
2018-02-21T12:06:19.958Z,9.70
2018-02-21T12:08:54.570Z,9.20
2018-02-21T12:11:22.638Z,9.30
2018-02-21T12:13:51.622Z,9.70
2018-02-21T12:16:21.802Z,9.80
2018-02-21T12:18:53.362Z,10.00
2018-02-21T12:21:22.341Z,10.10
2018-02-21T12:23:50.394Z,10.40
2018-02-21T12:26:19.395Z,9.90
2018-02-21T12:28:51.150Z,9.20
2018-02-21T12:31:23.786Z,9.20
2018-02-21T12:34:12.506Z,9.10
2018-02-21T12:36:53.782Z,9.60
2018-02-21T12:39:29.350Z,9.80
2018-02-21T12:41:59.302Z,10.20
2018-02-21T12:44:28.358Z,9.90
2018-02-21T12:47:03.947Z,10.60
2018-02-21T12:49:31.995Z,10.50
2018-02-21T12:52:01.645Z,10.10
2018-02-21T12:54:31.902Z,11.20
2018-02-21T12:57:01.898Z,11.20
2018-02-21T12:59:31.569Z,10.70
2018-02-21T13:02:02.410Z,11.30
2018-02-21T13:04:31.434Z,11.10
2018-02-21T13:07:01.454Z,11.60
2018-02-21T13:09:30.374Z,11.80
2018-02-21T13:11:58.455Z,11.10
2018-02-21T13:14:26.494Z,10.80
2018-02-21T13:16:55.582Z,11.30
2018-02-21T13:19:24.498Z,10.90
2018-02-21T13:21:52.522Z,10.80
2018-02-21T13:24:23.238Z,11.00
2018-02-21T13:27:00.694Z,10.90
2018-02-21T13:29:31.674Z,10.80
2018-02-21T13:31:59.718Z,11.00
2018-02-21T13:34:32.019Z,11.70
2018-02-21T13:37:00.072Z,11.50
2018-02-21T13:39:34.378Z,11.50
2018-02-21T13:42:05.690Z,11.40
2018-02-21T13:44:40.974Z,11.30
2018-02-21T13:47:10.006Z,10.40
2018-02-21T13:49:40.018Z,10.10
2018-02-21T13:52:09.958Z,9.50
2018-02-21T13:54:38.022Z,10.10
2018-02-21T13:57:10.979Z,10.50
2018-02-21T13:59:48.362Z,11.20
2018-02-21T14:02:18.218Z,11.10
2018-02-21T14:04:46.282Z,11.10
2018-02-21T14:07:18.077Z,11.60
2018-02-21T14:09:53.598Z,12.10
2018-02-21T14:12:22.538Z,12.20
2018-02-21T14:14:52.771Z,11.70
2018-02-21T14:17:21.789Z,11.70
2018-02-21T14:19:51.766Z,11.70
2018-02-21T14:22:20.746Z,11.80
2018-02-21T14:24:48.786Z,12.80
2018-02-21T14:27:20.622Z,14.10
2018-02-21T14:29:54.377Z,13.40
2018-02-21T14:32:34.970Z,13.20
2018-02-21T14:35:08.102Z,12.60
2018-02-21T14:37:47.997Z,12.90
2018-02-21T14:40:22.687Z,10.50
2018-02-21T14:42:54.518Z,10.50
2018-02-21T14:45:25.002Z,9.40
2018-02-21T14:47:54.002Z,8.90
2018-02-21T14:50:22.950Z,8.00
2018-02-21T14:52:56.010Z,7.00
2018-02-21T14:55:24.081Z,7.00
2018-02-21T14:57:54.146Z,6.50
2018-02-21T15:00:22.310Z,5.90
2018-02-21T15:02:51.334Z,5.60
2018-02-21T15:05:20.172Z,6.40
2018-02-21T15:07:56.621Z,6.40
2018-02-21T15:10:39.242Z,7.20
2018-02-21T15:13:22.822Z,8.30
2018-02-21T15:15:52.863Z,8.70
2018-02-21T15:18:21.835Z,8.70
2018-02-21T15:20:50.707Z,8.30
2018-02-21T15:23:22.861Z,8.20
2018-02-21T15:25:51.926Z,8.60
2018-02-21T15:28:20.893Z,8.50
2018-02-21T15:30:49.166Z,8.50
2018-02-21T15:33:22.357Z,8.40
2018-02-21T15:35:54.106Z,8.80
2018-02-21T15:38:23.846Z,8.70
2018-02-21T15:40:52.805Z,8.70
2018-02-21T15:43:22.526Z,8.60
2018-02-21T15:45:51.321Z,8.00
2018-02-21T15:48:41.141Z,8.00
2018-02-21T15:51:13.597Z,7.70
2018-02-21T15:53:43.602Z,7.70
2018-02-21T15:56:22.877Z,7.60
2018-02-21T15:58:54.885Z,7.10
2018-02-21T16:01:23.853Z,6.00
2018-02-21T16:03:51.965Z,5.10
2018-02-21T16:06:20.729Z,4.40
2018-02-21T16:08:48.809Z,4.00
2018-02-21T16:11:17.622Z,3.10
2018-02-21T16:13:53.529Z,3.10
2018-02-21T16:16:21.961Z,2.90
2018-02-21T16:18:53.677Z,2.60
2018-02-21T16:21:21.739Z,2.50
2018-02-21T16:23:51.769Z,2.30
2018-02-21T16:26:20.581Z,1.90
2018-02-21T16:28:49.581Z,1.80
2018-02-21T16:31:20.278Z,1.70
2018-02-21T16:33:53.981Z,1.30
2018-02-21T16:36:22.825Z,1.30
2018-02-21T16:38:53.933Z,1.00
2018-02-21T16:41:21.981Z,0.70
2018-02-21T16:43:56.709Z,0.50
2018-02-21T16:46:25.541Z,0.00
2018-02-21T16:51:54.321Z,0.20
2018-02-21T16:54:22.353Z,0.20
2018-02-21T16:56:58.909Z,0.20
2018-02-21T16:59:27.841Z,0.10
2018-02-21T17:02:00.433Z,0.30
2018-02-21T17:04:34.172Z,0.20
2018-02-21T17:07:02.205Z,0.20
2018-02-21T17:09:32.133Z,0.30
2018-02-21T17:12:02.080Z,0.20
2018-02-21T17:14:36.461Z,0.10
2018-02-21T17:17:04.521Z,0.10
2018-02-21T17:19:38.195Z,0.00
2018-02-21T17:22:13.122Z,0.10
2018-02-21T17:24:41.145Z,0.10
2018-02-21T17:27:09.177Z,-0.20
2018-02-21T17:29:39.072Z,-0.30
2018-02-21T17:32:08.065Z,-0.30
2018-02-21T17:34:37.049Z,-0.40
2018-02-21T17:37:05.093Z,-0.30
2018-02-21T17:39:33.141Z,-0.40
2018-02-21T17:42:01.173Z,-0.40
2018-02-21T17:44:35.184Z,-0.50
2018-02-21T17:47:08.161Z,-0.60
2018-02-21T17:49:38.187Z,-0.70
2018-02-21T17:52:13.585Z,-0.80
2018-02-21T17:54:43.574Z,-0.80
2018-02-21T17:57:11.552Z,-0.90
2018-02-21T17:59:42.832Z,-0.90
2018-02-21T18:02:18.292Z,-0.90
2018-02-21T18:07:43.829Z,-1.10
2018-02-21T18:10:13.848Z,-1.20
2018-02-21T18:15:43.281Z,-1.30
2018-02-21T18:18:30.609Z,-1.30
2018-02-21T18:21:02.297Z,-1.40
2018-02-21T18:23:32.116Z,-1.50
2018-02-21T18:26:07.056Z,-1.50
2018-02-21T18:28:47.592Z,-1.60
2018-02-21T18:31:17.581Z,-1.60
2018-02-21T18:34:00.220Z,-1.80
2018-02-21T18:36:48.056Z,-1.70
2018-02-21T18:39:16.076Z,-1.70
2018-02-21T18:41:52.216Z,-1.70
2018-02-21T18:44:23.582Z,-1.60
2018-02-21T18:46:52.492Z,-1.60
2018-02-21T18:49:22.228Z,-1.70
2018-02-21T18:51:51.168Z,-1.80
2018-02-21T18:54:20.121Z,-1.80
2018-02-21T18:57:05.280Z,-1.80
2018-02-21T18:59:33.325Z,-1.80
2018-02-21T19:02:02.305Z,-1.80
2018-02-21T19:04:30.344Z,-1.90
2018-02-21T19:07:02.241Z,-1.90
2018-02-21T19:09:38.512Z,-1.90
2018-02-21T19:12:08.244Z,-1.90
2018-02-21T19:14:36.264Z,-1.90
2018-02-21T19:17:09.896Z,-2.00
2018-02-21T19:19:39.820Z,-2.10
2018-02-21T19:22:10.528Z,-2.20
2018-02-21T19:24:41.252Z,-2.30
2018-02-21T19:27:10.225Z,-2.30
2018-02-21T19:29:42.148Z,-2.40
2018-02-21T19:32:10.184Z,-2.60
2018-02-21T19:34:42.861Z,-2.70
2018-02-21T19:37:10.936Z,-2.70
2018-02-21T19:39:38.949Z,-2.70
2018-02-21T19:42:09.502Z,-2.70
2018-02-21T19:44:38.544Z,-2.80
2018-02-21T19:47:11.204Z,-2.70
2018-02-21T19:49:39.244Z,-2.90
2018-02-21T19:52:07.288Z,-2.90
2018-02-21T19:54:37.117Z,-2.50
2018-02-21T19:57:05.208Z,-2.40
2018-02-21T19:59:33.313Z,-2.30
2018-02-21T20:02:02.171Z,-2.30
2018-02-21T20:04:30.248Z,-2.30
2018-02-21T20:06:58.673Z,-2.40
2018-02-21T20:09:27.504Z,-2.60
2018-02-21T20:12:01.424Z,-2.60
2018-02-21T20:14:30.158Z,-2.60
2018-02-21T20:17:07.125Z,-2.50
2018-02-21T20:19:36.096Z,-2.50
2018-02-21T20:22:05.492Z,-2.30
2018-02-21T20:24:34.332Z,-2.20
2018-02-21T20:27:04.328Z,-2.20
2018-02-21T20:29:36.785Z,-2.40
2018-02-21T20:32:05.788Z,-2.40
2018-02-21T20:34:35.824Z,-2.40
2018-02-21T20:37:03.892Z,-2.50
2018-02-21T20:39:33.293Z,-2.50
2018-02-21T20:42:04.036Z,-2.50
2018-02-21T20:44:38.412Z,-2.70
2018-02-21T20:47:13.179Z,-2.70
2018-02-21T20:49:47.192Z,-2.70
2018-02-21T20:52:21.709Z,-2.80
2018-02-21T20:54:51.020Z,-2.70
2018-02-21T20:57:19.085Z,-2.80
2018-02-21T20:59:47.136Z,-2.90
2018-02-21T21:02:15.280Z,-2.80
2018-02-21T21:09:53.248Z,-2.70
2018-02-21T21:12:25.144Z,-3.00
2018-02-21T21:17:28.363Z,-3.00
2018-02-21T21:19:56.728Z,-3.00
2018-02-21T21:22:25.764Z,-3.00
2018-02-21T21:24:58.652Z,-3.00
2018-02-21T21:27:29.912Z,-3.00
2018-02-21T21:29:57.960Z,-3.00
2018-02-21T21:32:26.672Z,-3.10
2018-02-21T21:34:54.740Z,-3.10
2018-02-21T21:37:35.449Z,-2.80
2018-02-21T21:40:03.832Z,-2.80
2018-02-21T21:42:31.864Z,-2.70
2018-02-21T21:45:00.772Z,-2.70
2018-02-21T21:47:28.864Z,-2.70
2018-02-21T21:50:00.796Z,-2.70
2018-02-21T21:52:30.966Z,-2.80
2018-02-21T21:54:59.992Z,-3.00
2018-02-21T21:57:33.739Z,-3.10
2018-02-21T22:00:01.852Z,-3.10
2018-02-21T22:02:31.940Z,-3.10
2018-02-21T22:05:01.729Z,-3.00
2018-02-21T22:07:29.784Z,-3.00
2018-02-21T22:09:59.748Z,-2.90
2018-02-21T22:12:30.516Z,-3.00
2018-02-21T22:15:00.544Z,-3.00
2018-02-21T22:17:37.016Z,-3.00
2018-02-21T22:20:05.304Z,-3.20
2018-02-21T22:22:33.488Z,-3.30
2018-02-21T22:25:03.555Z,-3.20
2018-02-21T22:27:33.376Z,-3.20
2018-02-21T22:30:06.329Z,-3.20
2018-02-21T22:32:36.192Z,-3.20
2018-02-21T22:35:04.360Z,-3.20
2018-02-21T22:37:32.395Z,-3.20
2018-02-21T22:40:03.631Z,-3.10
2018-02-21T22:42:32.528Z,-3.40
2018-02-21T22:45:03.295Z,-3.50
2018-02-21T22:47:34.020Z,-3.60
2018-02-21T22:50:04.032Z,-3.60
2018-02-21T22:52:33.055Z,-3.80
2018-02-21T22:55:02.148Z,-3.70
2018-02-21T22:57:30.172Z,-3.60
2018-02-21T23:00:06.935Z,-3.70
2018-02-21T23:02:37.995Z,-3.90
2018-02-21T23:05:07.988Z,-3.90
2018-02-21T23:07:40.391Z,-4.00
2018-02-21T23:10:08.463Z,-3.70
2018-02-21T23:12:41.140Z,-3.80
2018-02-21T23:15:10.123Z,-3.70
2018-02-21T23:17:39.080Z,-3.70
2018-02-21T23:20:10.465Z,-3.70
2018-02-21T23:22:40.512Z,-3.70
2018-02-21T23:25:10.468Z,-3.60
2018-02-21T23:27:38.531Z,-3.80
2018-02-21T23:30:07.543Z,-3.80
2018-02-21T23:32:37.547Z,-3.90
2018-02-21T23:35:05.588Z,-4.00
2018-02-21T23:37:34.607Z,-4.10
2018-02-21T23:40:02.649Z,-4.10
2018-02-21T23:42:30.700Z,-4.20
2018-02-21T23:44:58.778Z,-4.10
2018-02-21T23:47:26.879Z,-3.90
2018-02-21T23:49:55.899Z,-4.00
2018-02-21T23:52:24.759Z,-4.00
2018-02-21T23:54:52.784Z,-4.10
2018-02-21T23:57:25.667Z,-4.10
2018-02-21T23:59:58.444Z,-3.90
